Don's Testing Zone


Current Conditions
weather data
source:

National Weather Service
Clear Hot Springs, AR
Clear, 41°F
Monday, October 22, 2018 11:53 PM CDT
Temperature: 41°F/5°C
Humidity: 93%
Barometer: 30.25in/1024.5mb Barometer Steady
Wind: CALM at 0mph/0kmh
View other cities:
Searcy | Little Rock | Hot Springs | Russellville | More...
Astronomical Conditions (Clear Sky Clock)
Searcy Clear Sky Clock
Find more weather in Little Rock, AR
    

Radar Images

NWS
    Wx Underground

KARK
   

Solar-Terrestrial Data

NWS METAR weather data

ADDS - METARS form results





Aviation Digital Data Service (ADDS) Output produced by METARs form (0542 UTC 22 October 2018) found at http://www.aviationweather.gov/metar/data/ 

KHOT 220453Z AUTO 00000KT 10SM CLR 05/04 A3025 RMK AO2 SLP245 T00500044

KHOT 220353Z AUTO 00000KT 10SM CLR 06/04 A3026 RMK AO2 SLP247 T00560044

KHOT 220253Z AUTO 00000KT 10SM CLR 07/05 A3027 RMK AO2 SLP249 T00720050 50004

KHOT 220153Z AUTO 00000KT 10SM CLR 08/06 A3027 RMK AO2 SLP250 T00780056

KHOT 220053Z AUTO 08003KT 10SM CLR 09/04 A3027 RMK AO2 SLP249 T00890044

KHOT 212353Z AUTO 07005KT 10SM CLR 10/04 A3026 RMK AO2 SLP245 T01000044 10167 20100 58009

KHOT 212253Z AUTO 10004KT 10SM CLR 15/02 A3027 RMK AO2 SLP248 T01500017

KHOT 212153Z AUTO 08005KT 10SM CLR 16/M01 A3027 RMK AO2 SLP250 T01611006

KHOT 212053Z AUTO 00000KT 10SM CLR 16/M01 A3028 RMK AO2 SLP252 T01561006 56025

KHOT 211953Z AUTO 16005KT 10SM CLR 16/M01 A3030 RMK AO2 SLP259 T01561011

KHOT 211853Z AUTO 10003KT 10SM CLR 15/M01 A3033 RMK AO2 SLP268 T01501006

KHOT 211753Z AUTO 08008KT 10SM CLR 14/M02 A3036 RMK AO2 SLP277 T01391017 10144 20072 58015

KHOT 211653Z AUTO 07007KT 020V120 10SM CLR 13/M01 A3038 RMK AO2 SLP287 T01281006

KHOT 211553Z AUTO 09007KT 10SM CLR 11/M01 A3041 RMK AO2 SLP294 T01061011

KHOT 211453Z AUTO 07012KT 10SM CLR 10/M01 A3040 RMK AO2 SLP293 T01001006 50006

KHOT 211353Z AUTO 05008KT 10SM CLR 09/03 A3041 RMK AO2 SLP297 T00890028

KHOT 211253Z AUTO 06009KT 10SM CLR 07/03 A3039 RMK AO2 SLP290 T00720033

KHOT 211153Z AUTO 05008KT 10SM CLR 08/03 A3038 RMK AO2 SLP286 T00780028 10150 20078 53018

KHOT 211053Z AUTO 07008KT 10SM CLR 09/03 A3037 RMK AO2 SLP281 T00890028

KHOT 210953Z AUTO 05011KT 10SM CLR 11/02 A3034 RMK AO2 SLP272 T01060022

KHOT 210853Z AUTO 06009KT 10SM CLR 11/02 A3033 RMK AO2 SLP267 T01110017 53009

KHOT 210753Z AUTO 04010G17KT 10SM CLR 14/01 A3032 RMK AO2 SLP263 T01390011

KHOT 210653Z AUTO 36004KT 10SM CLR 14/03 A3031 RMK AO2 SLP258 T01440028

KHOT 210553Z AUTO 02007KT 10SM CLR 16/04 A3030 RMK AO2 SLP257 T01560039 10172 20128 402170128 51012 KHOT 220520Z 2206/2306 VRB02KT P6SM FEW250 TEMPO 2210/2213 00000KT 1/2SM FG SCT002 FM221600 18004KT P6SM BKN250 FM230300 00000KT P6SM OVC250